createdAt,value
2018-04-30T00:00:49.612Z,39.64
2018-04-30T00:01:49.602Z,39.35
2018-04-30T00:02:49.593Z,39.35
2018-04-30T00:04:10.581Z,40.31
2018-04-30T00:04:49.570Z,40.41
2018-04-30T00:05:49.565Z,41.07
2018-04-30T00:06:49.551Z,40.78
2018-04-30T00:07:49.581Z,40.69
2018-04-30T00:08:49.530Z,40.59
2018-04-30T00:10:10.530Z,40.31
2018-04-30T00:10:49.508Z,40.59
2018-04-30T00:11:49.506Z,40.41
2018-04-30T00:12:49.496Z,40.78
2018-04-30T00:13:49.492Z,41.07
2018-04-30T00:14:49.481Z,40.88
2018-04-30T00:16:10.477Z,40.98
2018-04-30T00:16:49.461Z,40.98
2018-04-30T00:17:49.448Z,40.98
2018-04-30T00:18:49.450Z,41.55
2018-04-30T00:19:49.436Z,41.46
2018-04-30T00:20:49.418Z,41.65
2018-04-30T00:22:10.417Z,41.36
2018-04-30T00:22:49.400Z,41.65
2018-04-30T00:23:49.390Z,40.98
2018-04-30T00:24:49.387Z,41.74
2018-04-30T00:25:49.375Z,41.94
2018-04-30T00:26:49.371Z,42.41
2018-04-30T00:28:10.377Z,42.13
2018-04-30T00:28:49.349Z,42.32
2018-04-30T00:29:49.340Z,42.32
2018-04-30T00:30:49.327Z,42.51
2018-04-30T00:31:49.355Z,42.90
2018-04-30T00:32:49.317Z,42.70
2018-04-30T00:34:10.311Z,42.32
2018-04-30T00:34:49.298Z,42.32
2018-04-30T00:35:49.286Z,42.32
2018-04-30T00:36:49.274Z,42.03
2018-04-30T00:37:49.264Z,41.94
2018-04-30T00:38:49.267Z,42.03
2018-04-30T00:40:10.252Z,41.94
2018-04-30T00:40:49.234Z,41.55
2018-04-30T00:41:49.227Z,41.84
2018-04-30T00:42:49.223Z,42.80
2018-04-30T00:43:49.215Z,42.80
2018-04-30T00:44:49.214Z,42.22
2018-04-30T00:46:10.209Z,42.60
2018-04-30T00:46:49.180Z,43.18
2018-04-30T00:47:49.182Z,43.27
2018-04-30T00:48:49.172Z,43.63
2018-04-30T00:49:49.158Z,43.92
2018-04-30T00:50:49.154Z,43.95
2018-04-30T00:52:10.152Z,43.56
2018-04-30T00:52:49.135Z,43.63
2018-04-30T00:53:49.130Z,43.56
2018-04-30T00:54:49.129Z,43.27
2018-04-30T00:55:49.111Z,43.27
2018-04-30T00:56:49.115Z,43.18
2018-04-30T00:58:10.093Z,43.66
2018-04-30T00:58:49.072Z,43.76
2018-04-30T00:59:49.068Z,42.99
2018-04-30T01:00:49.051Z,43.27
2018-04-30T01:01:49.042Z,43.27
2018-04-30T01:02:49.039Z,43.27
2018-04-30T01:04:10.044Z,42.99
2018-04-30T01:04:49.046Z,43.66
2018-04-30T01:05:49.010Z,43.66
2018-04-30T01:06:49.001Z,43.56
2018-04-30T01:07:48.997Z,43.76
2018-04-30T01:08:48.993Z,43.56
2018-04-30T01:10:09.995Z,43.76
2018-04-30T01:10:48.968Z,43.56
2018-04-30T01:11:48.957Z,43.76
2018-04-30T01:12:48.941Z,43.76
2018-04-30T01:13:48.930Z,43.56
2018-04-30T01:14:48.925Z,43.85
2018-04-30T01:16:10.883Z,44.33
2018-04-30T01:16:48.923Z,45.76
2018-04-30T01:17:48.907Z,45.76
2018-04-30T01:18:48.895Z,45.29
2018-04-30T01:19:48.887Z,45.09
2018-04-30T01:20:48.875Z,44.71
2018-04-30T01:22:09.868Z,45.57
2018-04-30T01:22:48.848Z,45.96
2018-04-30T01:23:48.840Z,46.82
2018-04-30T01:24:48.836Z,46.44
2018-04-30T01:25:48.820Z,46.53
2018-04-30T01:26:48.814Z,46.72
2018-04-30T01:28:09.808Z,46.72
2018-04-30T01:28:48.792Z,46.53
2018-04-30T01:29:48.797Z,46.82
2018-04-30T01:30:48.784Z,46.70
2018-04-30T01:31:48.774Z,46.91
2018-04-30T01:32:48.761Z,46.82
2018-04-30T01:34:09.763Z,46.82
2018-04-30T01:34:48.828Z,47.11
2018-04-30T01:35:48.744Z,47.66
2018-04-30T01:36:48.727Z,48.42
2018-04-30T01:37:48.710Z,48.80
2018-04-30T01:38:48.708Z,50.15
2018-04-30T01:40:09.704Z,50.05
2018-04-30T01:40:48.694Z,50.43
2018-04-30T01:41:48.682Z,50.72
2018-04-30T01:42:48.666Z,51.48
2018-04-30T01:43:48.660Z,51.29
2018-04-30T01:44:48.646Z,51.56
2018-04-30T01:46:09.647Z,52.32
2018-04-30T01:46:48.631Z,52.61
2018-04-30T01:47:48.623Z,52.99
2018-04-30T01:48:48.621Z,52.99
2018-04-30T01:49:48.606Z,53.47
2018-04-30T01:50:48.594Z,53.94
2018-04-30T01:52:09.590Z,53.94
2018-04-30T01:52:48.578Z,53.56
2018-04-30T01:53:48.565Z,54.04
2018-04-30T01:54:48.556Z,54.61
2018-04-30T01:55:48.571Z,54.52
2018-04-30T01:56:48.538Z,54.04
2018-04-30T01:58:09.547Z,53.75
2018-04-30T01:58:48.529Z,54.52
2018-04-30T01:59:48.521Z,54.43
2018-04-30T02:00:48.512Z,54.71
2018-04-30T02:01:48.496Z,54.39
2018-04-30T02:02:48.488Z,54.59
2018-04-30T02:04:09.490Z,54.02
2018-04-30T02:04:48.507Z,54.88
2018-04-30T02:05:48.453Z,54.97
2018-04-30T02:06:48.446Z,55.54
2018-04-30T02:07:48.436Z,56.60
2018-04-30T02:08:48.428Z,57.75
2018-04-30T02:10:09.435Z,58.22
2018-04-30T02:10:48.403Z,58.80
2018-04-30T02:11:48.401Z,59.08
2018-04-30T02:12:48.403Z,60.10
2018-04-30T02:13:48.381Z,60.58
2018-04-30T02:14:48.373Z,61.35
2018-04-30T02:16:09.382Z,61.54
2018-04-30T02:16:48.357Z,62.68
2018-04-30T02:17:48.336Z,63.45
2018-04-30T02:18:48.324Z,65.17
2018-04-30T02:19:48.320Z,66.99
2018-04-30T02:20:48.316Z,68.70
2018-04-30T02:22:09.314Z,69.85
2018-04-30T02:22:48.289Z,70.04
2018-04-30T02:23:48.293Z,70.29
2018-04-30T02:24:48.273Z,69.91
2018-04-30T02:25:48.263Z,69.43
2018-04-30T02:26:48.255Z,70.01
2018-04-30T02:28:09.248Z,71.34
2018-04-30T02:28:48.223Z,72.01
2018-04-30T02:29:48.224Z,71.63
2018-04-30T02:30:48.206Z,71.44
2018-04-30T02:31:48.200Z,71.34
2018-04-30T02:32:48.191Z,71.88
2018-04-30T02:34:09.189Z,71.34
2018-04-30T02:34:48.180Z,71.92
2018-04-30T02:35:48.169Z,72.97
2018-04-30T02:36:48.149Z,72.97
2018-04-30T02:37:48.141Z,71.06
2018-04-30T02:38:48.129Z,70.39
2018-04-30T02:40:09.133Z,71.15
2018-04-30T02:40:48.113Z,71.63
2018-04-30T02:41:48.111Z,70.39
2018-04-30T02:42:48.087Z,70.54
2018-04-30T02:43:48.094Z,71.41
2018-04-30T02:44:48.072Z,72.07
2018-04-30T02:46:09.069Z,71.98
2018-04-30T02:46:48.058Z,71.98
2018-04-30T02:47:48.041Z,73.69
2018-04-30T02:48:48.027Z,72.74
2018-04-30T02:49:48.017Z,72.93
2018-04-30T02:50:48.013Z,73.79
2018-04-30T02:52:09.011Z,73.22
2018-04-30T02:52:47.987Z,73.41
2018-04-30T02:53:47.973Z,73.79
2018-04-30T02:54:47.970Z,73.88
2018-04-30T02:55:47.980Z,73.98
2018-04-30T02:56:47.956Z,73.12
2018-04-30T02:58:08.948Z,73.88
2018-04-30T02:58:47.931Z,73.79
2018-04-30T02:59:47.923Z,73.69
2018-04-30T03:00:47.912Z,73.41
2018-04-30T03:01:47.897Z,73.41
2018-04-30T03:02:47.897Z,73.79
2018-04-30T03:04:08.883Z,74.37
2018-04-30T03:04:47.864Z,74.46
2018-04-30T03:05:47.854Z,74.93
2018-04-30T03:06:47.848Z,75.70
2018-04-30T03:07:47.832Z,75.98
2018-04-30T03:08:47.831Z,76.65
2018-04-30T03:10:08.837Z,76.56
2018-04-30T03:10:47.802Z,76.37
2018-04-30T03:11:47.798Z,76.08
2018-04-30T03:12:47.789Z,76.75
2018-04-30T03:13:47.775Z,76.08
2018-04-30T03:14:47.840Z,76.08
2018-04-30T03:16:08.775Z,76.18
2018-04-30T03:16:47.747Z,76.18
2018-04-30T03:17:47.739Z,76.08
2018-04-30T03:18:47.728Z,76.18
2018-04-30T03:19:47.723Z,76.75
2018-04-30T03:20:47.700Z,77.13
2018-04-30T03:22:08.687Z,77.03
2018-04-30T03:22:47.680Z,76.84
2018-04-30T03:23:47.670Z,77.95
2018-04-30T03:24:47.658Z,77.95
2018-04-30T03:25:47.650Z,77.95
2018-04-30T03:26:47.645Z,78.23
2018-04-30T03:28:08.630Z,78.23
2018-04-30T03:28:47.615Z,78.52
2018-04-30T03:29:47.611Z,79.28
2018-04-30T03:30:47.608Z,79.48
2018-04-30T03:31:47.589Z,79.53
2018-04-30T03:32:47.582Z,79.53
2018-04-30T03:34:08.575Z,79.25
2018-04-30T03:34:47.553Z,79.44
2018-04-30T03:35:47.547Z,79.35
2018-04-30T03:36:47.540Z,80.11
2018-04-30T03:37:47.523Z,79.44
2018-04-30T03:38:47.508Z,79.44
2018-04-30T03:40:08.506Z,79.57
2018-04-30T03:40:47.497Z,79.48
2018-04-30T03:41:47.476Z,80.24
2018-04-30T03:42:47.517Z,79.86
2018-04-30T03:43:47.468Z,79.28
2018-04-30T03:44:47.447Z,79.28
2018-04-30T03:46:08.443Z,78.81
2018-04-30T03:46:47.430Z,79.28
2018-04-30T03:47:47.421Z,79.10
2018-04-30T03:48:47.410Z,79.19
2018-04-30T03:49:47.449Z,79.86
2018-04-30T03:50:47.389Z,80.33
2018-04-30T03:52:08.378Z,79.63
2018-04-30T03:52:47.353Z,80.30
2018-04-30T03:53:47.355Z,80.01
2018-04-30T03:54:47.340Z,79.82
2018-04-30T03:55:47.331Z,80.01
2018-04-30T03:56:47.331Z,80.49
2018-04-30T03:58:08.311Z,80.77
2018-04-30T03:58:47.297Z,80.96
2018-04-30T03:59:47.290Z,80.87
2018-04-30T04:00:47.280Z,80.77
2018-04-30T04:01:47.261Z,80.96
2018-04-30T04:02:47.258Z,80.20
2018-04-30T04:04:08.255Z,80.01
2018-04-30T04:04:47.234Z,80.43
2018-04-30T04:05:47.223Z,79.48
2018-04-30T04:06:47.215Z,79.10
2018-04-30T04:07:47.213Z,79.00
2018-04-30T04:08:47.184Z,79.19
2018-04-30T04:10:08.188Z,78.72
2018-04-30T04:10:47.175Z,78.14
2018-04-30T04:11:47.168Z,77.67
2018-04-30T04:12:47.188Z,77.19
2018-04-30T04:13:47.140Z,77.19
2018-04-30T04:14:47.122Z,77.19
2018-04-30T04:16:08.118Z,78.05
2018-04-30T04:16:47.104Z,77.47
2018-04-30T04:17:47.101Z,77.67
2018-04-30T04:18:47.091Z,76.62
2018-04-30T04:19:47.091Z,76.81
2018-04-30T04:20:47.102Z,76.71
2018-04-30T04:22:08.060Z,76.81
2018-04-30T04:22:47.036Z,76.04
2018-04-30T04:23:47.028Z,76.14
2018-04-30T04:24:47.019Z,75.85
2018-04-30T04:25:47.017Z,76.14
2018-04-30T04:26:46.998Z,76.14
2018-04-30T04:28:07.991Z,76.52
2018-04-30T04:28:46.977Z,75.66
2018-04-30T04:29:46.966Z,75.37
2018-04-30T04:30:46.961Z,75.57
2018-04-30T04:31:46.944Z,74.77
2018-04-30T04:32:46.932Z,75.34
2018-04-30T04:34:07.933Z,75.43
2018-04-30T04:34:46.906Z,74.77
2018-04-30T04:35:46.899Z,73.81
2018-04-30T04:36:46.903Z,73.91
2018-04-30T04:37:46.885Z,73.52
2018-04-30T04:38:46.870Z,73.91
2018-04-30T04:40:07.861Z,74.19
2018-04-30T04:40:46.840Z,73.91
2018-04-30T04:41:46.866Z,73.72
2018-04-30T04:42:46.823Z,74.01
2018-04-30T04:43:46.809Z,74.01
2018-04-30T04:44:46.800Z,74.01
2018-04-30T04:46:07.798Z,73.52
2018-04-30T04:46:46.782Z,73.81
2018-04-30T04:47:46.764Z,73.62
2018-04-30T04:48:46.764Z,73.81
2018-04-30T04:49:46.747Z,74.67
2018-04-30T04:50:46.739Z,74.54
2018-04-30T04:52:07.731Z,74.82
2018-04-30T04:52:46.722Z,75.30
2018-04-30T04:53:46.712Z,75.20
2018-04-30T04:54:46.761Z,75.78
2018-04-30T04:55:46.693Z,75.40
2018-04-30T04:56:46.672Z,75.30
2018-04-30T04:58:07.688Z,74.92
2018-04-30T04:58:46.647Z,75.30
2018-04-30T04:59:46.652Z,75.96
2018-04-30T05:00:46.622Z,75.11
2018-04-30T05:01:46.623Z,75.49
2018-04-30T05:02:46.613Z,74.98
2018-04-30T05:04:07.597Z,74.40
2018-04-30T05:04:46.585Z,73.55
2018-04-30T05:05:46.586Z,73.07
2018-04-30T05:06:46.561Z,71.36
2018-04-30T05:07:46.557Z,69.93
2018-04-30T05:08:46.542Z,69.64
2018-04-30T05:10:07.533Z,68.88
2018-04-30T05:10:46.528Z,69.26
2018-04-30T05:11:46.507Z,67.26
2018-04-30T05:12:46.494Z,67.74
2018-04-30T05:13:46.481Z,67.41
2018-04-30T05:14:46.470Z,67.74
2018-04-30T05:16:07.462Z,73.74
2018-04-30T05:16:46.452Z,75.70
2018-04-30T05:17:46.440Z,76.84
2018-04-30T05:18:46.426Z,78.41
2018-04-30T05:19:46.414Z,79.83
2018-04-30T05:20:46.405Z,80.65
2018-04-30T05:22:07.403Z,81.26
2018-04-30T05:22:46.722Z,81.89
2018-04-30T05:23:46.366Z,82.08
2018-04-30T05:24:46.361Z,82.08
2018-04-30T05:25:46.349Z,80.75
2018-04-30T05:26:46.341Z,79.89
2018-04-30T05:28:07.329Z,79.32
2018-04-30T05:28:46.306Z,78.85
2018-04-30T05:29:46.317Z,77.51
2018-04-30T05:30:46.283Z,75.42
2018-04-30T05:31:46.270Z,76.27
2018-04-30T05:32:46.258Z,75.99
2018-04-30T05:34:07.286Z,75.99
2018-04-30T05:34:46.237Z,75.23
2018-04-30T05:35:46.241Z,73.03
2018-04-30T05:36:46.223Z,73.41
2018-04-30T05:37:46.211Z,73.41
2018-04-30T05:38:46.199Z,73.32
2018-04-30T05:40:07.193Z,73.80
2018-04-30T05:40:46.169Z,73.99
2018-04-30T05:41:46.159Z,73.99
2018-04-30T05:42:46.186Z,75.23
2018-04-30T05:43:46.137Z,75.79
2018-04-30T05:44:46.122Z,75.60
2018-04-30T05:46:07.114Z,74.75
2018-04-30T05:46:46.098Z,74.94
2018-04-30T05:47:46.092Z,74.94
2018-04-30T05:48:46.074Z,74.65
2018-04-30T05:49:46.065Z,74.21
2018-04-30T05:50:46.048Z,74.12
2018-04-30T05:52:07.047Z,73.65
2018-04-30T05:52:46.030Z,73.07
2018-04-30T05:53:46.030Z,73.26
2018-04-30T05:54:46.007Z,73.93
2018-04-30T05:55:45.995Z,73.83
2018-04-30T05:56:45.983Z,73.61
2018-04-30T05:58:06.995Z,74.18
2018-04-30T05:58:45.957Z,73.80
2018-04-30T05:59:45.953Z,74.46
2018-04-30T06:00:45.929Z,74.18
2018-04-30T06:01:45.925Z,74.65
2018-04-30T06:02:45.909Z,73.89
2018-04-30T06:04:06.915Z,73.99
2018-04-30T06:04:45.891Z,74.08
2018-04-30T06:05:45.889Z,74.08
2018-04-30T06:06:45.884Z,74.08
2018-04-30T06:07:45.856Z,72.97
2018-04-30T06:08:45.847Z,72.56
2018-04-30T06:10:06.834Z,72.56
2018-04-30T06:10:45.808Z,72.65
2018-04-30T06:11:45.803Z,71.89
2018-04-30T06:12:45.786Z,72.46
2018-04-30T06:13:45.778Z,72.60
2018-04-30T06:14:45.762Z,72.69
2018-04-30T06:16:06.758Z,72.50
2018-04-30T06:16:45.743Z,72.78
2018-04-30T06:17:45.737Z,72.78
2018-04-30T06:18:45.718Z,71.55
2018-04-30T06:19:45.709Z,71.93
2018-04-30T06:20:45.696Z,71.26
2018-04-30T06:22:06.689Z,71.36
2018-04-30T06:22:45.687Z,70.88
2018-04-30T06:23:45.666Z,70.97
2018-04-30T06:24:45.650Z,70.34
2018-04-30T06:25:45.644Z,70.25
2018-04-30T06:26:45.689Z,70.34
2018-04-30T06:28:06.624Z,70.92
2018-04-30T06:28:45.603Z,69.90
2018-04-30T06:29:45.593Z,70.09
2018-04-30T06:30:45.585Z,69.71
2018-04-30T06:31:45.572Z,68.85
2018-04-30T06:32:45.585Z,67.99
2018-04-30T06:34:06.556Z,67.90
2018-04-30T06:34:45.544Z,67.14
2018-04-30T06:35:45.550Z,67.23
2018-04-30T06:36:45.513Z,67.52
2018-04-30T06:37:45.500Z,67.42
2018-04-30T06:38:45.488Z,67.55
2018-04-30T06:40:06.482Z,67.74
2018-04-30T06:40:45.465Z,67.83
2018-04-30T06:41:45.455Z,67.07
2018-04-30T06:42:45.444Z,66.88
2018-04-30T06:43:45.439Z,67.27
2018-04-30T06:44:45.429Z,66.78
2018-04-30T06:46:06.418Z,66.15
2018-04-30T06:46:45.406Z,65.48
2018-04-30T06:47:45.401Z,65.48
2018-04-30T06:48:45.377Z,65.77
2018-04-30T06:49:45.364Z,65.10
2018-04-30T06:50:45.356Z,64.62
2018-04-30T06:52:06.349Z,64.15
2018-04-30T06:52:45.339Z,63.86
2018-04-30T06:53:45.328Z,63.48
2018-04-30T06:54:45.306Z,63.76
2018-04-30T06:55:45.298Z,64.15
2018-04-30T06:56:45.299Z,65.10
2018-04-30T06:58:06.287Z,68.73
2018-04-30T06:58:45.278Z,69.78
2018-04-30T06:59:45.259Z,69.68
2018-04-30T07:00:45.255Z,68.38
2018-04-30T07:01:45.237Z,68.00
2018-04-30T07:02:45.243Z,67.52
2018-04-30T07:04:06.228Z,66.95
2018-04-30T07:04:45.199Z,66.38
2018-04-30T07:05:45.193Z,65.61
2018-04-30T07:06:45.177Z,65.52
2018-04-30T07:07:45.183Z,65.42
2018-04-30T07:08:45.176Z,65.42
2018-04-30T07:10:06.154Z,65.55
2018-04-30T07:10:45.145Z,65.07
2018-04-30T07:11:45.129Z,64.69
2018-04-30T07:12:45.119Z,65.55
2018-04-30T07:13:45.105Z,62.87
2018-04-30T07:14:45.097Z,62.21
2018-04-30T07:16:06.087Z,62.59
2018-04-30T07:16:45.075Z,63.64
2018-04-30T07:17:45.077Z,63.16
2018-04-30T07:18:45.056Z,63.76
2018-04-30T07:19:45.051Z,62.71
2018-04-30T07:20:45.040Z,62.04
2018-04-30T07:22:06.030Z,61.09
2018-04-30T07:22:45.024Z,58.51
2018-04-30T07:23:45.014Z,56.12
2018-04-30T07:24:45.025Z,55.45
2018-04-30T07:25:44.998Z,56.21
2018-04-30T07:26:45.001Z,57.17
2018-04-30T07:28:05.974Z,58.51
2018-04-30T07:28:44.952Z,58.51
2018-04-30T07:29:44.943Z,57.17
2018-04-30T07:30:44.939Z,59.11
2018-04-30T07:31:44.929Z,59.40
2018-04-30T07:32:44.913Z,59.20
2018-04-30T07:34:05.912Z,59.30
2018-04-30T07:34:44.890Z,59.40
2018-04-30T07:35:44.888Z,60.26
2018-04-30T07:36:44.877Z,58.73
2018-04-30T07:37:44.867Z,58.92
2018-04-30T07:38:44.897Z,57.87
2018-04-30T07:40:05.859Z,57.90
2018-04-30T07:40:44.839Z,57.99
2018-04-30T07:41:44.827Z,57.42
2018-04-30T07:42:44.815Z,57.04
2018-04-30T07:43:44.816Z,54.74
2018-04-30T07:44:44.804Z,55.51
2018-04-30T07:46:05.808Z,56.17
2018-04-30T07:46:44.793Z,55.98
2018-04-30T07:47:44.777Z,55.88
2018-04-30T07:48:44.774Z,55.31
2018-04-30T07:49:44.756Z,54.26
2018-04-30T07:50:44.751Z,53.85
2018-04-30T07:52:05.742Z,53.28
2018-04-30T07:52:44.720Z,52.67
2018-04-30T07:53:44.717Z,52.39
2018-04-30T07:54:44.723Z,53.63
2018-04-30T07:55:44.693Z,53.53
2018-04-30T07:56:44.678Z,53.34
2018-04-30T07:58:05.684Z,53.25
2018-04-30T07:58:44.665Z,52.87
2018-04-30T07:59:44.656Z,52.39
2018-04-30T08:00:44.655Z,51.91
2018-04-30T08:01:44.648Z,52.29
2018-04-30T08:02:44.631Z,52.58
2018-04-30T08:04:05.651Z,52.32
2018-04-30T08:04:44.615Z,52.42
2018-04-30T08:05:44.602Z,51.65
2018-04-30T08:06:44.591Z,50.95
2018-04-30T08:07:44.581Z,51.75
2018-04-30T08:08:44.576Z,50.50
2018-04-30T08:10:05.575Z,50.21
2018-04-30T08:10:44.548Z,52.03
2018-04-30T08:11:44.543Z,51.84
2018-04-30T08:12:44.537Z,52.42
2018-04-30T08:13:44.523Z,53.94
2018-04-30T08:14:44.524Z,51.17
2018-04-30T08:16:05.522Z,52.06
2018-04-30T08:16:44.493Z,51.77
2018-04-30T08:17:44.487Z,51.10
2018-04-30T08:18:44.493Z,49.86
2018-04-30T08:19:44.465Z,50.65
2018-04-30T08:20:44.459Z,49.50
2018-04-30T08:22:05.457Z,51.61
2018-04-30T08:22:44.441Z,49.21
2018-04-30T08:23:44.433Z,49.40
2018-04-30T08:24:44.434Z,50.29
2018-04-30T08:25:44.410Z,50.67
2018-04-30T08:26:44.402Z,48.93
2018-04-30T08:28:05.407Z,45.19
2018-04-30T08:28:44.390Z,43.37
2018-04-30T08:29:44.385Z,42.91
2018-04-30T08:30:44.373Z,40.04
2018-04-30T08:31:44.365Z,37.24
2018-04-30T08:32:44.361Z,35.35
2018-04-30T08:34:05.350Z,37.34
2018-04-30T08:34:44.331Z,40.14
2018-04-30T08:35:44.325Z,36.67
2018-04-30T08:36:44.342Z,35.52
2018-04-30T08:37:44.306Z,35.33
2018-04-30T08:38:44.297Z,35.35
2018-04-30T08:40:05.284Z,35.24
2018-04-30T08:40:44.278Z,35.63
2018-04-30T08:41:44.285Z,35.33
2018-04-30T08:42:44.268Z,34.56
2018-04-30T08:43:44.253Z,34.47
2018-04-30T08:44:44.260Z,35.42
2018-04-30T08:46:05.249Z,35.69
2018-04-30T08:46:44.225Z,35.69
2018-04-30T08:47:44.214Z,37.23
2018-04-30T08:48:44.207Z,38.18
2018-04-30T08:49:44.190Z,37.80
2018-04-30T08:50:44.187Z,39.33
2018-04-30T08:52:05.254Z,39.98
2018-04-30T08:52:44.169Z,39.40
2018-04-30T08:53:44.161Z,37.88
2018-04-30T08:54:44.155Z,37.02
2018-04-30T08:55:44.149Z,36.92
2018-04-30T08:56:44.142Z,37.11
2018-04-30T08:58:05.132Z,37.59
2018-04-30T08:58:44.126Z,38.07
2018-04-30T08:59:44.106Z,38.26
2018-04-30T09:00:44.102Z,40.08
2018-04-30T09:01:44.100Z,38.54
2018-04-30T09:02:44.101Z,37.21
2018-04-30T09:04:05.081Z,37.68
2018-04-30T09:04:44.059Z,39.10
2018-04-30T09:05:44.047Z,40.25
2018-04-30T09:06:44.044Z,40.06
2018-04-30T09:07:44.045Z,41.97
2018-04-30T09:08:44.033Z,40.25
2018-04-30T09:10:05.048Z,39.39
2018-04-30T09:10:44.029Z,40.34
2018-04-30T09:11:44.004Z,41.32
2018-04-30T09:12:44.007Z,39.98
2018-04-30T09:13:43.980Z,40.55
2018-04-30T09:14:43.987Z,39.79
2018-04-30T09:16:04.965Z,38.54
2018-04-30T09:16:43.952Z,38.17
2018-04-30T09:17:43.966Z,37.02
2018-04-30T09:18:43.936Z,37.88
2018-04-30T09:19:43.950Z,37.97
2018-04-30T09:20:43.911Z,38.93
2018-04-30T09:22:04.913Z,38.74
2018-04-30T09:22:43.904Z,38.74
2018-04-30T09:23:43.894Z,39.22
2018-04-30T09:24:43.868Z,38.45
2018-04-30T09:25:43.887Z,38.35
2018-04-30T09:26:43.857Z,39.98
2018-04-30T09:28:04.869Z,39.98
2018-04-30T09:28:43.847Z,39.12
2018-04-30T09:29:43.843Z,38.07
2018-04-30T09:30:43.817Z,39.12
2018-04-30T09:31:43.815Z,38.47
2018-04-30T09:32:43.798Z,37.90
2018-04-30T09:34:04.794Z,38.18
2018-04-30T09:34:43.783Z,37.70
2018-04-30T09:35:43.767Z,37.51
2018-04-30T09:36:43.755Z,38.09
2018-04-30T09:37:43.751Z,38.95
2018-04-30T09:38:43.739Z,37.34
2018-04-30T09:40:04.784Z,37.92
2018-04-30T09:40:43.725Z,36.65
2018-04-30T09:41:43.711Z,38.59
2018-04-30T09:42:43.696Z,38.96
2018-04-30T09:43:43.715Z,38.28
2018-04-30T09:44:43.697Z,39.14
2018-04-30T09:46:04.688Z,38.47
2018-04-30T09:46:43.670Z,37.70
2018-04-30T09:47:43.662Z,38.56
2018-04-30T09:48:43.654Z,37.61
2018-04-30T09:49:43.638Z,37.61
2018-04-30T09:50:43.635Z,36.94
2018-04-30T09:52:04.630Z,37.41
2018-04-30T09:52:43.603Z,36.73
2018-04-30T09:53:43.602Z,36.44
2018-04-30T09:54:43.590Z,37.02
2018-04-30T09:55:43.583Z,37.49
2018-04-30T09:56:43.588Z,37.88
2018-04-30T09:58:04.567Z,39.12
2018-04-30T09:58:43.565Z,37.97
2018-04-30T09:59:43.539Z,37.30
2018-04-30T10:00:43.545Z,37.88
2018-04-30T10:01:43.526Z,38.93
2018-04-30T10:02:43.528Z,38.17
2018-04-30T10:04:04.516Z,36.63
2018-04-30T10:04:43.504Z,36.63
2018-04-30T10:05:43.490Z,36.82
2018-04-30T10:06:43.491Z,37.02
2018-04-30T10:07:43.476Z,37.97
2018-04-30T10:08:43.457Z,38.54
2018-04-30T10:10:04.458Z,38.95
2018-04-30T10:10:43.442Z,37.61
2018-04-30T10:11:43.443Z,37.68
2018-04-30T10:12:43.413Z,36.55
2018-04-30T10:13:43.415Z,35.41
2018-04-30T10:14:43.409Z,37.04
2018-04-30T10:16:04.397Z,36.75
2018-04-30T10:16:43.397Z,36.36
2018-04-30T10:17:43.414Z,35.31
2018-04-30T10:18:43.366Z,35.98
2018-04-30T10:19:43.362Z,36.84
2018-04-30T10:20:43.339Z,37.11
2018-04-30T10:22:04.341Z,38.54
2018-04-30T10:22:43.323Z,37.30
2018-04-30T10:23:43.421Z,39.04
2018-04-30T10:24:43.306Z,39.33
2018-04-30T10:25:43.298Z,38.76
2018-04-30T10:26:43.302Z,37.13
2018-04-30T10:28:04.288Z,36.55
2018-04-30T10:28:43.264Z,37.13
2018-04-30T10:29:43.258Z,36.17
2018-04-30T10:30:43.264Z,34.36
2018-04-30T10:31:43.325Z,33.20
2018-04-30T10:32:43.240Z,35.50
2018-04-30T10:34:04.230Z,36.65
2018-04-30T10:34:43.217Z,36.94
2018-04-30T10:35:43.199Z,36.17
2018-04-30T10:36:43.197Z,36.65
2018-04-30T10:37:43.217Z,36.65
2018-04-30T10:38:43.175Z,38.18
2018-04-30T10:40:04.208Z,37.92
2018-04-30T10:40:43.153Z,36.96
2018-04-30T10:41:43.148Z,36.79
2018-04-30T10:42:43.144Z,35.73
2018-04-30T10:43:43.136Z,36.00
2018-04-30T10:44:43.118Z,37.92
2018-04-30T10:46:04.130Z,34.48
2018-04-30T10:46:43.102Z,34.20
2018-04-30T10:47:43.092Z,34.58
2018-04-30T10:48:43.080Z,35.46
2018-04-30T10:49:43.069Z,34.50
2018-04-30T10:50:43.063Z,34.00
2018-04-30T10:52:04.052Z,32.28
2018-04-30T10:52:43.054Z,33.14
2018-04-30T10:53:43.041Z,33.64
2018-04-30T10:54:43.025Z,35.08
2018-04-30T10:55:43.020Z,34.50
2018-04-30T10:56:43.001Z,32.97
2018-04-30T10:58:04.001Z,32.68
2018-04-30T10:58:42.987Z,32.87
2018-04-30T10:59:42.980Z,32.20
2018-04-30T11:00:42.974Z,32.12
2018-04-30T11:01:42.959Z,32.79
2018-04-30T11:02:43.006Z,29.82
2018-04-30T11:04:03.954Z,29.53
2018-04-30T11:04:42.934Z,29.53
2018-04-30T11:05:42.929Z,28.85
2018-04-30T11:06:42.921Z,28.38
2018-04-30T11:07:42.913Z,32.03
2018-04-30T11:08:42.907Z,34.81
2018-04-30T11:10:03.907Z,32.03
2018-04-30T11:10:42.884Z,30.58
2018-04-30T11:11:42.877Z,29.44
2018-04-30T11:12:42.873Z,29.34
2018-04-30T11:13:42.857Z,31.46
2018-04-30T11:14:42.848Z,29.06
2018-04-30T11:16:03.842Z,29.45
2018-04-30T11:16:42.830Z,30.58
2018-04-30T11:17:42.822Z,30.57
2018-04-30T11:18:42.819Z,28.26
2018-04-30T11:19:42.806Z,28.35
2018-04-30T11:20:42.802Z,28.37
2018-04-30T11:22:03.794Z,30.29
2018-04-30T11:22:42.860Z,32.12
2018-04-30T11:23:42.779Z,33.27
2018-04-30T11:24:42.772Z,30.68
2018-04-30T11:25:42.756Z,31.35
2018-04-30T11:26:42.746Z,33.08
2018-04-30T11:28:03.744Z,32.31
2018-04-30T11:28:42.734Z,32.33
2018-04-30T11:29:42.718Z,31.37
2018-04-30T11:30:42.712Z,30.70
2018-04-30T11:31:42.709Z,31.37
2018-04-30T11:32:42.699Z,33.01
2018-04-30T11:34:03.782Z,33.50
2018-04-30T11:34:42.685Z,32.92
2018-04-30T11:35:42.679Z,31.38
2018-04-30T11:36:42.662Z,30.12
2018-04-30T11:37:42.659Z,30.32
2018-04-30T11:38:42.647Z,29.16
2018-04-30T11:40:03.723Z,28.22
2018-04-30T11:40:42.630Z,31.58
2018-04-30T11:41:42.624Z,28.22
2018-04-30T11:42:42.614Z,27.16
2018-04-30T11:43:42.612Z,26.86
2018-04-30T11:44:42.604Z,28.59
2018-04-30T11:46:03.600Z,28.31
2018-04-30T11:46:42.585Z,28.20
2018-04-30T11:47:42.580Z,27.53
2018-04-30T11:48:42.575Z,25.12
2018-04-30T11:49:42.559Z,25.51
2018-04-30T11:50:42.568Z,24.26
2018-04-30T11:52:03.551Z,25.31
2018-04-30T11:52:42.539Z,26.85
2018-04-30T11:53:42.530Z,25.78
2018-04-30T11:54:42.524Z,24.74
2018-04-30T11:55:42.516Z,24.93
2018-04-30T11:56:42.501Z,25.04
2018-04-30T11:58:03.505Z,25.32
2018-04-30T11:58:42.556Z,26.10
2018-04-30T11:59:42.483Z,28.60
2018-04-30T12:00:42.478Z,26.49
2018-04-30T12:01:42.460Z,24.94
2018-04-30T12:02:42.464Z,26.28
2018-04-30T12:04:03.482Z,26.28
2018-04-30T12:04:42.435Z,26.38
2018-04-30T12:05:42.430Z,26.08
2018-04-30T12:06:42.418Z,27.33
2018-04-30T12:07:42.415Z,25.52
2018-04-30T12:08:42.409Z,24.85
2018-04-30T12:10:03.429Z,25.04
2018-04-30T12:10:42.389Z,25.52
2018-04-30T12:11:42.383Z,25.99
2018-04-30T12:12:42.375Z,26.09
2018-04-30T12:13:42.375Z,24.94
2018-04-30T12:14:42.369Z,26.19
2018-04-30T12:16:03.356Z,25.15
2018-04-30T12:16:42.338Z,28.22
2018-04-30T12:17:42.330Z,27.36
2018-04-30T12:18:42.327Z,25.92
2018-04-30T12:19:42.321Z,26.12
2018-04-30T12:20:42.315Z,27.47
2018-04-30T12:22:03.381Z,29.10
2018-04-30T12:22:42.296Z,29.11
2018-04-30T12:23:42.284Z,28.34
2018-04-30T12:24:42.279Z,27.58
2018-04-30T12:25:42.271Z,23.83
2018-04-30T12:26:42.261Z,23.44
2018-04-30T12:28:03.265Z,22.85
2018-04-30T12:28:42.242Z,23.91
2018-04-30T12:29:42.244Z,24.01
2018-04-30T12:30:42.228Z,23.24
2018-04-30T12:31:42.228Z,23.43
2018-04-30T12:32:42.218Z,23.90
2018-04-30T12:34:03.223Z,24.18
2018-04-30T12:34:42.201Z,25.90
2018-04-30T12:35:42.200Z,25.04
2018-04-30T12:36:42.186Z,24.28
2018-04-30T12:37:42.187Z,26.20
2018-04-30T12:38:42.170Z,23.42
2018-04-30T12:40:03.189Z,23.52
2018-04-30T12:40:42.152Z,23.42
2018-04-30T12:41:42.154Z,23.13
2018-04-30T12:42:42.156Z,23.12
2018-04-30T12:43:42.228Z,24.08
2018-04-30T12:44:42.120Z,26.01
2018-04-30T12:46:03.118Z,24.49
2018-04-30T12:46:42.108Z,22.95
2018-04-30T12:47:42.098Z,24.20
2018-04-30T12:48:42.099Z,23.92
2018-04-30T12:49:42.097Z,24.98
2018-04-30T12:50:42.093Z,24.40
2018-04-30T12:52:03.079Z,23.26
2018-04-30T12:52:42.072Z,23.84